sensor_id;sensor_type;location;lat;lon;timestamp;P1;durP1;ratioP1;P2;durP2;ratioP2
20026;SDS011;10174;42.688;23.344;2023-03-01T00:01:30;27.90;;;12.35;;
20026;SDS011;10174;42.688;23.344;2023-03-01T00:03:57;82.40;;;42.05;;
20026;SDS011;10174;42.688;23.344;2023-03-01T00:06:23;120.57;;;64.63;;
20026;SDS011;10174;42.688;23.344;2023-03-01T00:08:49;97.50;;;57.60;;
20026;SDS011;10174;42.688;23.344;2023-03-01T00:13:41;62.03;;;41.95;;
20026;SDS011;10174;42.688;23.344;2023-03-01T00:16:09;43.75;;;30.17;;
20026;SDS011;10174;42.688;23.344;2023-03-01T00:18:37;40.45;;;25.38;;
20026;SDS011;10174;42.688;23.344;2023-03-01T00:21:03;27.27;;;17.92;;
20026;SDS011;10174;42.688;23.344;2023-03-01T00:23:29;17.25;;;11.40;;
20026;SDS011;10174;42.688;23.344;2023-03-01T00:25:54;12.15;;;7.43;;
20026;SDS011;10174;42.688;23.344;2023-03-01T00:28:20;11.50;;;7.88;;
20026;SDS011;10174;42.688;23.344;2023-03-01T00:30:46;15.73;;;10.15;;
20026;SDS011;10174;42.688;23.344;2023-03-01T00:33:12;22.70;;;12.63;;
20026;SDS011;10174;42.688;23.344;2023-03-01T00:35:38;40.33;;;18.80;;
20026;SDS011;10174;42.688;23.344;2023-03-01T00:38:03;46.40;;;18.40;;
20026;SDS011;10174;42.688;23.344;2023-03-01T00:40:30;44.10;;;18.00;;
20026;SDS011;10174;42.688;23.344;2023-03-01T00:42:57;44.28;;;16.00;;
20026;SDS011;10174;42.688;23.344;2023-03-01T00:45:23;40.13;;;14.82;;
20026;SDS011;10174;42.688;23.344;2023-03-01T00:47:49;25.65;;;10.57;;
20026;SDS011;10174;42.688;23.344;2023-03-01T00:50:15;26.20;;;10.88;;
20026;SDS011;10174;42.688;23.344;2023-03-01T00:52:40;22.05;;;8.80;;
20026;SDS011;10174;42.688;23.344;2023-03-01T00:55:06;14.88;;;7.60;;
20026;SDS011;10174;42.688;23.344;2023-03-01T00:57:32;13.93;;;6.88;;
20026;SDS011;10174;42.688;23.344;2023-03-01T00:59:58;11.43;;;5.97;;
20026;SDS011;10174;42.688;23.344;2023-03-01T01:02:24;12.52;;;5.93;;
20026;SDS011;10174;42.688;23.344;2023-03-01T01:04:49;11.38;;;5.07;;
20026;SDS011;10174;42.688;23.344;2023-03-01T01:07:15;9.93;;;5.20;;
20026;SDS011;10174;42.688;23.344;2023-03-01T01:09:41;8.50;;;4.70;;
20026;SDS011;10174;42.688;23.344;2023-03-01T01:12:06;6.90;;;4.07;;
20026;SDS011;10174;42.688;23.344;2023-03-01T01:14:32;6.28;;;3.88;;
20026;SDS011;10174;42.688;23.344;2023-03-01T01:16:58;8.52;;;4.00;;
20026;SDS011;10174;42.688;23.344;2023-03-01T01:19:24;5.82;;;3.83;;
20026;SDS011;10174;42.688;23.344;2023-03-01T01:21:49;7.85;;;3.85;;
20026;SDS011;10174;42.688;23.344;2023-03-01T01:24:15;6.35;;;4.05;;
20026;SDS011;10174;42.688;23.344;2023-03-01T01:26:41;8.40;;;3.85;;
20026;SDS011;10174;42.688;23.344;2023-03-01T01:29:07;5.40;;;3.55;;
20026;SDS011;10174;42.688;23.344;2023-03-01T01:31:33;7.55;;;3.63;;
20026;SDS011;10174;42.688;23.344;2023-03-01T01:34:01;5.00;;;3.20;;
20026;SDS011;10174;42.688;23.344;2023-03-01T01:36:28;5.95;;;3.42;;
20026;SDS011;10174;42.688;23.344;2023-03-01T01:38:54;5.47;;;3.65;;
20026;SDS011;10174;42.688;23.344;2023-03-01T01:41:20;5.65;;;3.70;;
20026;SDS011;10174;42.688;23.344;2023-03-01T01:43:47;8.23;;;3.97;;
20026;SDS011;10174;42.688;23.344;2023-03-01T01:46:31;6.20;;;3.45;;
20026;SDS011;10174;42.688;23.344;2023-03-01T01:49:17;5.45;;;3.80;;
20026;SDS011;10174;42.688;23.344;2023-03-01T01:51:49;5.07;;;3.50;;
20026;SDS011;10174;42.688;23.344;2023-03-01T01:54:20;4.07;;;3.03;;
20026;SDS011;10174;42.688;23.344;2023-03-01T01:56:52;5.03;;;3.30;;
20026;SDS011;10174;42.688;23.344;2023-03-01T01:59:21;4.40;;;3.17;;
20026;SDS011;10174;42.688;23.344;2023-03-01T02:01:49;3.95;;;3.33;;
20026;SDS011;10174;42.688;23.344;2023-03-01T02:04:16;3.88;;;2.85;;
20026;SDS011;10174;42.688;23.344;2023-03-01T02:06:49;4.07;;;2.50;;
20026;SDS011;10174;42.688;23.344;2023-03-01T02:09:21;4.68;;;3.17;;
20026;SDS011;10174;42.688;23.344;2023-03-01T02:11:48;3.47;;;2.83;;
20026;SDS011;10174;42.688;23.344;2023-03-01T02:14:15;4.50;;;3.35;;
20026;SDS011;10174;42.688;23.344;2023-03-01T02:16:41;4.57;;;3.30;;
20026;SDS011;10174;42.688;23.344;2023-03-01T02:19:07;4.53;;;3.10;;
20026;SDS011;10174;42.688;23.344;2023-03-01T02:21:48;4.50;;;2.90;;
20026;SDS011;10174;42.688;23.344;2023-03-01T02:27:19;4.45;;;3.55;;
20026;SDS011;10174;42.688;23.344;2023-03-01T02:29:50;5.07;;;3.22;;
20026;SDS011;10174;42.688;23.344;2023-03-01T02:32:16;4.60;;;2.83;;
20026;SDS011;10174;42.688;23.344;2023-03-01T02:34:50;3.83;;;3.00;;
20026;SDS011;10174;42.688;23.344;2023-03-01T02:37:20;5.47;;;2.95;;
20026;SDS011;10174;42.688;23.344;2023-03-01T02:39:50;7.35;;;3.00;;
20026;SDS011;10174;42.688;23.344;2023-03-01T02:42:23;4.03;;;3.25;;
20026;SDS011;10174;42.688;23.344;2023-03-01T02:44:54;3.75;;;2.95;;
20026;SDS011;10174;42.688;23.344;2023-03-01T02:47:19;4.72;;;3.22;;
20026;SDS011;10174;42.688;23.344;2023-03-01T02:49:45;4.45;;;3.05;;
20026;SDS011;10174;42.688;23.344;2023-03-01T02:55:14;3.33;;;2.63;;
20026;SDS011;10174;42.688;23.344;2023-03-01T02:57:42;9.65;;;3.00;;
20026;SDS011;10174;42.688;23.344;2023-03-01T03:00:10;5.28;;;3.13;;
20026;SDS011;10174;42.688;23.344;2023-03-01T03:02:44;4.95;;;3.05;;
20026;SDS011;10174;42.688;23.344;2023-03-01T03:05:13;4.53;;;3.10;;
20026;SDS011;10174;42.688;23.344;2023-03-01T03:07:44;4.57;;;3.00;;
20026;SDS011;10174;42.688;23.344;2023-03-01T03:10:12;6.57;;;3.80;;
20026;SDS011;10174;42.688;23.344;2023-03-01T03:12:44;7.30;;;3.55;;
20026;SDS011;10174;42.688;23.344;2023-03-01T03:15:15;8.07;;;4.00;;
20026;SDS011;10174;42.688;23.344;2023-03-01T03:17:41;6.95;;;3.85;;
20026;SDS011;10174;42.688;23.344;2023-03-01T03:20:08;6.32;;;4.20;;
20026;SDS011;10174;42.688;23.344;2023-03-01T03:22:39;9.82;;;3.88;;
20026;SDS011;10174;42.688;23.344;2023-03-01T03:25:05;10.57;;;4.53;;
20026;SDS011;10174;42.688;23.344;2023-03-01T03:27:35;6.30;;;4.05;;
20026;SDS011;10174;42.688;23.344;2023-03-01T03:30:02;8.45;;;4.40;;
20026;SDS011;10174;42.688;23.344;2023-03-01T03:32:33;6.43;;;3.92;;
20026;SDS011;10174;42.688;23.344;2023-03-01T03:35:03;8.00;;;4.50;;
20026;SDS011;10174;42.688;23.344;2023-03-01T03:37:35;10.07;;;3.95;;
20026;SDS011;10174;42.688;23.344;2023-03-01T03:40:20;9.20;;;4.50;;
20026;SDS011;10174;42.688;23.344;2023-03-01T03:42:45;7.22;;;4.15;;
20026;SDS011;10174;42.688;23.344;2023-03-01T03:45:29;7.15;;;4.30;;
20026;SDS011;10174;42.688;23.344;2023-03-01T03:48:14;7.28;;;4.30;;
20026;SDS011;10174;42.688;23.344;2023-03-01T03:50:40;9.18;;;4.55;;
20026;SDS011;10174;42.688;23.344;2023-03-01T03:53:08;13.13;;;6.40;;
20026;SDS011;10174;42.688;23.344;2023-03-01T03:55:35;9.20;;;5.47;;
20026;SDS011;10174;42.688;23.344;2023-03-01T03:58:04;7.97;;;5.40;;
20026;SDS011;10174;42.688;23.344;2023-03-01T04:00:35;9.27;;;5.10;;
20026;SDS011;10174;42.688;23.344;2023-03-01T04:03:02;9.32;;;5.20;;
20026;SDS011;10174;42.688;23.344;2023-03-01T04:05:28;9.10;;;5.55;;
20026;SDS011;10174;42.688;23.344;2023-03-01T04:07:54;8.38;;;5.50;;
20026;SDS011;10174;42.688;23.344;2023-03-01T04:10:35;11.63;;;4.82;;
20026;SDS011;10174;42.688;23.344;2023-03-01T04:13:03;7.65;;;4.80;;
20026;SDS011;10174;42.688;23.344;2023-03-01T04:15:28;8.07;;;4.50;;
20026;SDS011;10174;42.688;23.344;2023-03-01T04:17:56;6.50;;;4.03;;
20026;SDS011;10174;42.688;23.344;2023-03-01T04:20:26;6.43;;;3.80;;
20026;SDS011;10174;42.688;23.344;2023-03-01T04:22:57;7.03;;;4.38;;
20026;SDS011;10174;42.688;23.344;2023-03-01T04:25:24;7.80;;;4.47;;
20026;SDS011;10174;42.688;23.344;2023-03-01T04:27:50;7.20;;;4.07;;
20026;SDS011;10174;42.688;23.344;2023-03-01T04:30:15;6.95;;;4.10;;
20026;SDS011;10174;42.688;23.344;2023-03-01T04:32:41;6.25;;;4.25;;
20026;SDS011;10174;42.688;23.344;2023-03-01T04:35:06;8.02;;;3.83;;
20026;SDS011;10174;42.688;23.344;2023-03-01T04:37:32;8.35;;;4.22;;
20026;SDS011;10174;42.688;23.344;2023-03-01T04:39:58;6.65;;;3.75;;
20026;SDS011;10174;42.688;23.344;2023-03-01T04:42:23;6.85;;;4.18;;
20026;SDS011;10174;42.688;23.344;2023-03-01T04:44:48;6.13;;;3.80;;
20026;SDS011;10174;42.688;23.344;2023-03-01T04:47:16;6.95;;;3.83;;
20026;SDS011;10174;42.688;23.344;2023-03-01T04:49:42;8.60;;;3.60;;
20026;SDS011;10174;42.688;23.344;2023-03-01T04:52:07;5.05;;;3.47;;
20026;SDS011;10174;42.688;23.344;2023-03-01T04:54:34;7.05;;;4.20;;
20026;SDS011;10174;42.688;23.344;2023-03-01T04:57:00;7.68;;;4.30;;
20026;SDS011;10174;42.688;23.344;2023-03-01T04:59:26;6.90;;;4.28;;
20026;SDS011;10174;42.688;23.344;2023-03-01T05:01:52;8.43;;;4.72;;
20026;SDS011;10174;42.688;23.344;2023-03-01T05:04:22;8.63;;;4.72;;
20026;SDS011;10174;42.688;23.344;2023-03-01T05:06:48;7.65;;;4.68;;
20026;SDS011;10174;42.688;23.344;2023-03-01T05:09:14;8.45;;;4.45;;
20026;SDS011;10174;42.688;23.344;2023-03-01T05:11:40;9.75;;;4.65;;
20026;SDS011;10174;42.688;23.344;2023-03-01T05:14:06;13.63;;;4.65;;
20026;SDS011;10174;42.688;23.344;2023-03-01T05:16:32;9.52;;;5.20;;
20026;SDS011;10174;42.688;23.344;2023-03-01T05:18:58;11.13;;;5.45;;
20026;SDS011;10174;42.688;23.344;2023-03-01T05:21:24;24.25;;;7.20;;
20026;SDS011;10174;42.688;23.344;2023-03-01T05:23:49;13.65;;;6.07;;
20026;SDS011;10174;42.688;23.344;2023-03-01T05:26:15;19.30;;;7.70;;
20026;SDS011;10174;42.688;23.344;2023-03-01T05:28:42;14.35;;;7.28;;
20026;SDS011;10174;42.688;23.344;2023-03-01T05:31:08;15.85;;;7.72;;
20026;SDS011;10174;42.688;23.344;2023-03-01T05:33:38;13.35;;;7.32;;
20026;SDS011;10174;42.688;23.344;2023-03-01T05:36:05;17.40;;;7.90;;
20026;SDS011;10174;42.688;23.344;2023-03-01T05:38:37;21.40;;;8.25;;
20026;SDS011;10174;42.688;23.344;2023-03-01T05:41:02;14.35;;;7.68;;
20026;SDS011;10174;42.688;23.344;2023-03-01T05:43:30;14.98;;;7.45;;
20026;SDS011;10174;42.688;23.344;2023-03-01T05:45:59;24.98;;;11.80;;
20026;SDS011;10174;42.688;23.344;2023-03-01T05:48:24;10.95;;;6.93;;
20026;SDS011;10174;42.688;23.344;2023-03-01T05:50:51;10.73;;;6.00;;
20026;SDS011;10174;42.688;23.344;2023-03-01T05:53:17;15.57;;;7.82;;
20026;SDS011;10174;42.688;23.344;2023-03-01T05:55:46;13.05;;;6.95;;
20026;SDS011;10174;42.688;23.344;2023-03-01T05:58:17;11.00;;;6.40;;
20026;SDS011;10174;42.688;23.344;2023-03-01T06:00:45;11.27;;;6.50;;
20026;SDS011;10174;42.688;23.344;2023-03-01T06:03:12;13.65;;;6.93;;
20026;SDS011;10174;42.688;23.344;2023-03-01T06:05:39;21.75;;;11.15;;
20026;SDS011;10174;42.688;23.344;2023-03-01T06:08:05;13.73;;;7.75;;
20026;SDS011;10174;42.688;23.344;2023-03-01T06:10:31;10.02;;;5.93;;
20026;SDS011;10174;42.688;23.344;2023-03-01T06:12:57;11.32;;;5.93;;
20026;SDS011;10174;42.688;23.344;2023-03-01T06:15:23;18.90;;;5.53;;
20026;SDS011;10174;42.688;23.344;2023-03-01T06:17:49;8.65;;;4.65;;
20026;SDS011;10174;42.688;23.344;2023-03-01T06:20:18;10.55;;;4.97;;
20026;SDS011;10174;42.688;23.344;2023-03-01T06:22:47;9.50;;;5.00;;
20026;SDS011;10174;42.688;23.344;2023-03-01T06:25:16;9.30;;;4.90;;
20026;SDS011;10174;42.688;23.344;2023-03-01T06:27:43;11.32;;;5.35;;
20026;SDS011;10174;42.688;23.344;2023-03-01T06:30:12;11.88;;;6.25;;
20026;SDS011;10174;42.688;23.344;2023-03-01T06:32:40;10.15;;;5.70;;
20026;SDS011;10174;42.688;23.344;2023-03-01T06:35:09;7.00;;;4.32;;
20026;SDS011;10174;42.688;23.344;2023-03-01T06:37:36;10.23;;;4.47;;
20026;SDS011;10174;42.688;23.344;2023-03-01T06:40:02;6.95;;;4.00;;
20026;SDS011;10174;42.688;23.344;2023-03-01T06:42:36;7.20;;;4.10;;
20026;SDS011;10174;42.688;23.344;2023-03-01T06:45:01;8.07;;;4.57;;
20026;SDS011;10174;42.688;23.344;2023-03-01T06:47:28;6.95;;;4.40;;
20026;SDS011;10174;42.688;23.344;2023-03-01T06:49:53;11.55;;;4.60;;
20026;SDS011;10174;42.688;23.344;2023-03-01T06:52:18;10.75;;;4.57;;
20026;SDS011;10174;42.688;23.344;2023-03-01T06:54:44;12.85;;;4.97;;
20026;SDS011;10174;42.688;23.344;2023-03-01T06:57:09;8.75;;;5.20;;
20026;SDS011;10174;42.688;23.344;2023-03-01T06:59:34;10.43;;;5.35;;
20026;SDS011;10174;42.688;23.344;2023-03-01T07:02:00;11.10;;;5.68;;
20026;SDS011;10174;42.688;23.344;2023-03-01T07:04:25;9.63;;;4.70;;
20026;SDS011;10174;42.688;23.344;2023-03-01T07:06:53;12.52;;;5.85;;
20026;SDS011;10174;42.688;23.344;2023-03-01T07:09:20;13.15;;;5.43;;
20026;SDS011;10174;42.688;23.344;2023-03-01T07:11:47;11.50;;;4.60;;
20026;SDS011;10174;42.688;23.344;2023-03-01T07:14:13;8.32;;;3.63;;
20026;SDS011;10174;42.688;23.344;2023-03-01T07:16:39;21.77;;;4.07;;
20026;SDS011;10174;42.688;23.344;2023-03-01T07:19:04;12.43;;;5.20;;
20026;SDS011;10174;42.688;23.344;2023-03-01T07:21:30;6.60;;;4.15;;
20026;SDS011;10174;42.688;23.344;2023-03-01T07:23:56;12.80;;;5.40;;
20026;SDS011;10174;42.688;23.344;2023-03-01T07:26:21;15.15;;;4.40;;
20026;SDS011;10174;42.688;23.344;2023-03-01T07:28:46;10.50;;;4.45;;
20026;SDS011;10174;42.688;23.344;2023-03-01T07:31:12;18.50;;;5.30;;
20026;SDS011;10174;42.688;23.344;2023-03-01T07:33:37;16.35;;;4.65;;
20026;SDS011;10174;42.688;23.344;2023-03-01T07:36:03;9.60;;;3.83;;
20026;SDS011;10174;42.688;23.344;2023-03-01T07:38:29;16.33;;;4.57;;
20026;SDS011;10174;42.688;23.344;2023-03-01T07:40:59;8.68;;;4.50;;
20026;SDS011;10174;42.688;23.344;2023-03-01T07:43:26;6.32;;;3.95;;
20026;SDS011;10174;42.688;23.344;2023-03-01T07:45:52;8.63;;;4.07;;
20026;SDS011;10174;42.688;23.344;2023-03-01T07:48:17;8.40;;;3.80;;
20026;SDS011;10174;42.688;23.344;2023-03-01T07:50:43;6.70;;;3.63;;
20026;SDS011;10174;42.688;23.344;2023-03-01T07:53:09;12.32;;;4.07;;
20026;SDS011;10174;42.688;23.344;2023-03-01T07:55:35;13.95;;;4.80;;
20026;SDS011;10174;42.688;23.344;2023-03-01T07:58:00;8.27;;;3.75;;
20026;SDS011;10174;42.688;23.344;2023-03-01T08:00:27;9.00;;;3.15;;
20026;SDS011;10174;42.688;23.344;2023-03-01T08:02:52;11.40;;;3.65;;
20026;SDS011;10174;42.688;23.344;2023-03-01T08:05:18;10.90;;;3.50;;
20026;SDS011;10174;42.688;23.344;2023-03-01T08:07:43;10.63;;;3.70;;
20026;SDS011;10174;42.688;23.344;2023-03-01T08:10:09;9.68;;;3.70;;
20026;SDS011;10174;42.688;23.344;2023-03-01T08:12:35;5.97;;;3.38;;
20026;SDS011;10174;42.688;23.344;2023-03-01T08:15:01;8.82;;;4.57;;
20026;SDS011;10174;42.688;23.344;2023-03-01T08:17:26;9.77;;;3.90;;
20026;SDS011;10174;42.688;23.344;2023-03-01T08:19:51;10.18;;;3.60;;
20026;SDS011;10174;42.688;23.344;2023-03-01T08:22:17;12.80;;;3.92;;
20026;SDS011;10174;42.688;23.344;2023-03-01T08:24:42;9.45;;;2.95;;
20026;SDS011;10174;42.688;23.344;2023-03-01T08:27:07;6.28;;;3.50;;
20026;SDS011;10174;42.688;23.344;2023-03-01T08:29:33;4.38;;;2.90;;
20026;SDS011;10174;42.688;23.344;2023-03-01T08:31:59;6.35;;;3.75;;
20026;SDS011;10174;42.688;23.344;2023-03-01T08:34:24;10.52;;;3.63;;
20026;SDS011;10174;42.688;23.344;2023-03-01T08:36:50;13.65;;;5.65;;
20026;SDS011;10174;42.688;23.344;2023-03-01T08:39:17;5.85;;;3.67;;
20026;SDS011;10174;42.688;23.344;2023-03-01T08:41:44;10.25;;;4.65;;
20026;SDS011;10174;42.688;23.344;2023-03-01T08:44:10;7.30;;;4.20;;
20026;SDS011;10174;42.688;23.344;2023-03-01T08:46:37;12.13;;;6.10;;
20026;SDS011;10174;42.688;23.344;2023-03-01T08:49:09;26.10;;;11.85;;
20026;SDS011;10174;42.688;23.344;2023-03-01T08:51:38;13.15;;;8.00;;
20026;SDS011;10174;42.688;23.344;2023-03-01T08:54:04;9.02;;;4.20;;
20026;SDS011;10174;42.688;23.344;2023-03-01T08:56:32;10.48;;;5.00;;
20026;SDS011;10174;42.688;23.344;2023-03-01T08:58:58;11.93;;;5.03;;
20026;SDS011;10174;42.688;23.344;2023-03-01T09:01:23;7.70;;;4.45;;
20026;SDS011;10174;42.688;23.344;2023-03-01T09:03:49;9.77;;;4.57;;
20026;SDS011;10174;42.688;23.344;2023-03-01T09:06:14;6.93;;;3.85;;
20026;SDS011;10174;42.688;23.344;2023-03-01T09:08:45;13.55;;;4.20;;
20026;SDS011;10174;42.688;23.344;2023-03-01T09:11:13;10.45;;;4.20;;
20026;SDS011;10174;42.688;23.344;2023-03-01T09:13:41;11.38;;;4.28;;
20026;SDS011;10174;42.688;23.344;2023-03-01T09:16:07;7.63;;;4.00;;
20026;SDS011;10174;42.688;23.344;2023-03-01T09:18:34;9.88;;;4.00;;
20026;SDS011;10174;42.688;23.344;2023-03-01T09:21:05;10.52;;;4.03;;
20026;SDS011;10174;42.688;23.344;2023-03-01T09:23:35;7.70;;;3.75;;
20026;SDS011;10174;42.688;23.344;2023-03-01T09:26:03;11.40;;;4.15;;
20026;SDS011;10174;42.688;23.344;2023-03-01T09:28:29;8.65;;;3.97;;
20026;SDS011;10174;42.688;23.344;2023-03-01T09:30:57;10.38;;;3.70;;
20026;SDS011;10174;42.688;23.344;2023-03-01T09:33:24;7.45;;;3.60;;
20026;SDS011;10174;42.688;23.344;2023-03-01T09:35:49;33.50;;;10.65;;
20026;SDS011;10174;42.688;23.344;2023-03-01T09:38:15;18.52;;;7.30;;
20026;SDS011;10174;42.688;23.344;2023-03-01T09:40:43;8.43;;;3.72;;
20026;SDS011;10174;42.688;23.344;2023-03-01T09:43:23;10.55;;;4.20;;
20026;SDS011;10174;42.688;23.344;2023-03-01T09:45:55;13.57;;;3.72;;
20026;SDS011;10174;42.688;23.344;2023-03-01T09:48:28;10.05;;;2.90;;
20026;SDS011;10174;42.688;23.344;2023-03-01T09:51:02;9.45;;;3.40;;
20026;SDS011;10174;42.688;23.344;2023-03-01T09:53:34;6.28;;;3.00;;
20026;SDS011;10174;42.688;23.344;2023-03-01T10:02:05;8.57;;;3.63;;
20026;SDS011;10174;42.688;23.344;2023-03-01T10:04:46;7.05;;;2.42;;
20026;SDS011;10174;42.688;23.344;2023-03-01T10:09:48;5.25;;;2.47;;
20026;SDS011;10174;42.688;23.344;2023-03-01T10:12:17;10.60;;;3.30;;
20026;SDS011;10174;42.688;23.344;2023-03-01T10:15:04;10.07;;;2.97;;
20026;SDS011;10174;42.688;23.344;2023-03-01T10:22:43;12.30;;;3.30;;
20026;SDS011;10174;42.688;23.344;2023-03-01T10:25:12;7.90;;;2.80;;
20026;SDS011;10174;42.688;23.344;2023-03-01T10:27:51;4.78;;;2.95;;
20026;SDS011;10174;42.688;23.344;2023-03-01T10:30:20;4.72;;;2.33;;
20026;SDS011;10174;42.688;23.344;2023-03-01T10:32:58;12.63;;;3.47;;
20026;SDS011;10174;42.688;23.344;2023-03-01T10:35:25;6.15;;;3.40;;
20026;SDS011;10174;42.688;23.344;2023-03-01T10:38:03;13.02;;;4.93;;
20026;SDS011;10174;42.688;23.344;2023-03-01T10:40:33;10.60;;;4.25;;
20026;SDS011;10174;42.688;23.344;2023-03-01T10:43:01;11.68;;;3.83;;
20026;SDS011;10174;42.688;23.344;2023-03-01T10:45:32;7.15;;;2.78;;
20026;SDS011;10174;42.688;23.344;2023-03-01T10:53:28;13.15;;;3.35;;
20026;SDS011;10174;42.688;23.344;2023-03-01T10:56:07;11.43;;;3.10;;
20026;SDS011;10174;42.688;23.344;2023-03-01T10:58:38;15.35;;;4.95;;
20026;SDS011;10174;42.688;23.344;2023-03-01T11:01:06;8.93;;;2.25;;
20026;SDS011;10174;42.688;23.344;2023-03-01T11:03:41;3.30;;;1.90;;
20026;SDS011;10174;42.688;23.344;2023-03-01T11:11:19;5.65;;;2.28;;
20026;SDS011;10174;42.688;23.344;2023-03-01T11:14:12;9.43;;;3.20;;
20026;SDS011;10174;42.688;23.344;2023-03-01T11:21:41;4.13;;;2.03;;
20026;SDS011;10174;42.688;23.344;2023-03-01T11:24:16;8.68;;;3.25;;
20026;SDS011;10174;42.688;23.344;2023-03-01T11:26:47;4.78;;;2.00;;
20026;SDS011;10174;42.688;23.344;2023-03-01T11:31:54;4.53;;;2.88;;
20026;SDS011;10174;42.688;23.344;2023-03-01T11:34:40;3.72;;;2.35;;
20026;SDS011;10174;42.688;23.344;2023-03-01T11:37:35;5.22;;;2.78;;
20026;SDS011;10174;42.688;23.344;2023-03-01T11:42:40;11.38;;;4.45;;
20026;SDS011;10174;42.688;23.344;2023-03-01T11:45:12;11.13;;;3.20;;
20026;SDS011;10174;42.688;23.344;2023-03-01T11:50:40;4.88;;;2.35;;
20026;SDS011;10174;42.688;23.344;2023-03-01T11:56:02;7.80;;;2.90;;
20026;SDS011;10174;42.688;23.344;2023-03-01T12:06:37;5.38;;;2.95;;
20026;SDS011;10174;42.688;23.344;2023-03-01T12:11:50;8.65;;;3.70;;
20026;SDS011;10174;42.688;23.344;2023-03-01T12:14:43;5.50;;;3.63;;
20026;SDS011;10174;42.688;23.344;2023-03-01T12:36:49;8.43;;;4.90;;
20026;SDS011;10174;42.688;23.344;2023-03-01T12:42:16;8.40;;;4.53;;
20026;SDS011;10174;42.688;23.344;2023-03-01T12:50:26;6.35;;;3.65;;
20026;SDS011;10174;42.688;23.344;2023-03-01T12:53:04;9.13;;;5.00;;
20026;SDS011;10174;42.688;23.344;2023-03-01T12:55:33;10.20;;;4.43;;
20026;SDS011;10174;42.688;23.344;2023-03-01T13:01:02;15.13;;;3.80;;
20026;SDS011;10174;42.688;23.344;2023-03-01T13:06:29;8.65;;;4.45;;
20026;SDS011;10174;42.688;23.344;2023-03-01T13:11:44;6.20;;;4.07;;
20026;SDS011;10174;42.688;23.344;2023-03-01T13:16:53;6.72;;;3.17;;
20026;SDS011;10174;42.688;23.344;2023-03-01T13:19:23;8.38;;;3.88;;
20026;SDS011;10174;42.688;23.344;2023-03-01T13:21:52;7.53;;;3.60;;
20026;SDS011;10174;42.688;23.344;2023-03-01T13:29:43;6.90;;;3.70;;
20026;SDS011;10174;42.688;23.344;2023-03-01T13:32:20;8.10;;;3.17;;
20026;SDS011;10174;42.688;23.344;2023-03-01T13:34:47;10.57;;;4.47;;
20026;SDS011;10174;42.688;23.344;2023-03-01T13:37:24;8.05;;;4.35;;
20026;SDS011;10174;42.688;23.344;2023-03-01T13:39:54;6.35;;;4.00;;
20026;SDS011;10174;42.688;23.344;2023-03-01T13:42:53;7.40;;;3.63;;
20026;SDS011;10174;42.688;23.344;2023-03-01T13:47:44;9.95;;;4.88;;
20026;SDS011;10174;42.688;23.344;2023-03-01T13:50:16;10.13;;;4.03;;
20026;SDS011;10174;42.688;23.344;2023-03-01T13:55:37;11.75;;;5.82;;
20026;SDS011;10174;42.688;23.344;2023-03-01T14:01:06;10.18;;;3.90;;
20026;SDS011;10174;42.688;23.344;2023-03-01T14:03:34;9.30;;;4.00;;
20026;SDS011;10174;42.688;23.344;2023-03-01T14:06:13;10.07;;;4.25;;
20026;SDS011;10174;42.688;23.344;2023-03-01T14:08:45;10.23;;;3.83;;
20026;SDS011;10174;42.688;23.344;2023-03-01T14:14:18;8.95;;;4.10;;
20026;SDS011;10174;42.688;23.344;2023-03-01T14:16:51;11.93;;;4.75;;
20026;SDS011;10174;42.688;23.344;2023-03-01T14:19:28;5.90;;;3.38;;
20026;SDS011;10174;42.688;23.344;2023-03-01T14:21:59;9.40;;;3.20;;
20026;SDS011;10174;42.688;23.344;2023-03-01T14:24:28;7.57;;;3.72;;
20026;SDS011;10174;42.688;23.344;2023-03-01T14:26:57;12.75;;;3.55;;
20026;SDS011;10174;42.688;23.344;2023-03-01T14:29:26;10.13;;;3.90;;
20026;SDS011;10174;42.688;23.344;2023-03-01T14:31:53;9.48;;;4.38;;
20026;SDS011;10174;42.688;23.344;2023-03-01T14:34:22;7.63;;;3.70;;
20026;SDS011;10174;42.688;23.344;2023-03-01T14:36:49;12.40;;;4.20;;
20026;SDS011;10174;42.688;23.344;2023-03-01T14:39:18;8.55;;;3.55;;
20026;SDS011;10174;42.688;23.344;2023-03-01T14:41:48;9.98;;;3.60;;
20026;SDS011;10174;42.688;23.344;2023-03-01T14:44:16;7.15;;;3.63;;
20026;SDS011;10174;42.688;23.344;2023-03-01T14:46:51;12.60;;;4.07;;
20026;SDS011;10174;42.688;23.344;2023-03-01T14:49:29;13.15;;;4.55;;
20026;SDS011;10174;42.688;23.344;2023-03-01T14:52:03;10.85;;;3.95;;
20026;SDS011;10174;42.688;23.344;2023-03-01T14:54:41;20.15;;;6.68;;
20026;SDS011;10174;42.688;23.344;2023-03-01T14:57:42;13.95;;;4.63;;
20026;SDS011;10174;42.688;23.344;2023-03-01T15:00:00;15.05;;;4.47;;
20026;SDS011;10174;42.688;23.344;2023-03-01T15:02:31;11.00;;;4.45;;
20026;SDS011;10174;42.688;23.344;2023-03-01T15:05:00;31.25;;;13.10;;
20026;SDS011;10174;42.688;23.344;2023-03-01T15:07:34;10.73;;;4.68;;
20026;SDS011;10174;42.688;23.344;2023-03-01T15:10:04;10.23;;;4.35;;
20026;SDS011;10174;42.688;23.344;2023-03-01T15:15:00;8.65;;;3.63;;
20026;SDS011;10174;42.688;23.344;2023-03-01T15:17:31;10.07;;;4.20;;
20026;SDS011;10174;42.688;23.344;2023-03-01T15:20:00;9.63;;;3.55;;
20026;SDS011;10174;42.688;23.344;2023-03-01T15:22:27;12.85;;;4.10;;
20026;SDS011;10174;42.688;23.344;2023-03-01T15:24:53;13.05;;;4.13;;
20026;SDS011;10174;42.688;23.344;2023-03-01T15:27:20;23.00;;;4.60;;
20026;SDS011;10174;42.688;23.344;2023-03-01T15:29:55;13.70;;;4.20;;
20026;SDS011;10174;42.688;23.344;2023-03-01T15:34:52;9.88;;;4.13;;
20026;SDS011;10174;42.688;23.344;2023-03-01T15:40:20;10.07;;;4.20;;
20026;SDS011;10174;42.688;23.344;2023-03-01T15:42:57;15.95;;;4.72;;
20026;SDS011;10174;42.688;23.344;2023-03-01T15:45:24;11.40;;;4.90;;
20026;SDS011;10174;42.688;23.344;2023-03-01T15:48:02;10.95;;;4.55;;
20026;SDS011;10174;42.688;23.344;2023-03-01T15:50:31;13.55;;;4.53;;
20026;SDS011;10174;42.688;23.344;2023-03-01T15:53:01;9.52;;;4.15;;
20026;SDS011;10174;42.688;23.344;2023-03-01T15:55:32;14.07;;;4.40;;
20026;SDS011;10174;42.688;23.344;2023-03-01T16:00:43;10.27;;;4.57;;
20026;SDS011;10174;42.688;23.344;2023-03-01T16:03:10;13.63;;;5.75;;
20026;SDS011;10174;42.688;23.344;2023-03-01T16:05:37;12.48;;;5.13;;
20026;SDS011;10174;42.688;23.344;2023-03-01T16:08:03;17.40;;;7.30;;
20026;SDS011;10174;42.688;23.344;2023-03-01T16:10:33;12.43;;;5.00;;
20026;SDS011;10174;42.688;23.344;2023-03-01T16:13:00;11.48;;;5.35;;
20026;SDS011;10174;42.688;23.344;2023-03-01T16:15:29;9.93;;;4.40;;
20026;SDS011;10174;42.688;23.344;2023-03-01T16:17:56;9.18;;;4.50;;
20026;SDS011;10174;42.688;23.344;2023-03-01T16:20:25;13.77;;;5.53;;
20026;SDS011;10174;42.688;23.344;2023-03-01T16:22:51;15.40;;;4.43;;
20026;SDS011;10174;42.688;23.344;2023-03-01T16:25:17;25.65;;;5.25;;
20026;SDS011;10174;42.688;23.344;2023-03-01T16:27:45;14.70;;;5.68;;
20026;SDS011;10174;42.688;23.344;2023-03-01T16:30:12;19.00;;;6.88;;
20026;SDS011;10174;42.688;23.344;2023-03-01T16:32:39;14.35;;;5.07;;
20026;SDS011;10174;42.688;23.344;2023-03-01T16:35:06;17.45;;;5.50;;
20026;SDS011;10174;42.688;23.344;2023-03-01T16:37:33;18.48;;;5.70;;
20026;SDS011;10174;42.688;23.344;2023-03-01T16:39:59;14.48;;;6.00;;
20026;SDS011;10174;42.688;23.344;2023-03-01T16:42:24;21.15;;;6.53;;
20026;SDS011;10174;42.688;23.344;2023-03-01T16:44:56;18.27;;;6.53;;